sensor_id;sensor_type;location;lat;lon;timestamp;pressure;altitude;pressure_sealevel;temperature
11792;BMP180;5953;52.372;9.918;2023-02-26T00:01:48;100727.00;;;6.70
11792;BMP180;5953;52.372;9.918;2023-02-26T00:04:16;100731.00;;;6.70
11792;BMP180;5953;52.372;9.918;2023-02-26T00:06:43;100737.00;;;6.70
11792;BMP180;5953;52.372;9.918;2023-02-26T00:09:23;100744.00;;;6.70
11792;BMP180;5953;52.372;9.918;2023-02-26T00:11:52;100743.00;;;6.80
11792;BMP180;5953;52.372;9.918;2023-02-26T00:14:31;100746.00;;;6.80
11792;BMP180;5953;52.372;9.918;2023-02-26T00:21:21;100750.00;;;6.60
11792;BMP180;5953;52.372;9.918;2023-02-26T00:28:11;100766.00;;;6.60
11792;BMP180;5953;52.372;9.918;2023-02-26T00:31:13;100769.00;;;6.50
11792;BMP180;5953;52.372;9.918;2023-02-26T00:38:27;100784.00;;;6.50
11792;BMP180;5953;52.372;9.918;2023-02-26T00:41:59;100779.00;;;6.50
11792;BMP180;5953;52.372;9.918;2023-02-26T00:54:45;100804.00;;;6.30
11792;BMP180;5953;52.372;9.918;2023-02-26T00:58:10;100798.00;;;6.20
11792;BMP180;5953;52.372;9.918;2023-02-26T01:01:01;100801.00;;;6.20
11792;BMP180;5953;52.372;9.918;2023-02-26T01:04:32;100801.00;;;6.10
11792;BMP180;5953;52.372;9.918;2023-02-26T01:07:46;100797.00;;;6.10
11792;BMP180;5953;52.372;9.918;2023-02-26T01:10:42;100801.00;;;6.00
11792;BMP180;5953;52.372;9.918;2023-02-26T01:14:18;100801.00;;;6.00
11792;BMP180;5953;52.372;9.918;2023-02-26T01:18:02;100800.00;;;6.00
11792;BMP180;5953;52.372;9.918;2023-02-26T01:21:07;100801.00;;;6.00
11792;BMP180;5953;52.372;9.918;2023-02-26T01:27:35;100818.00;;;6.00
11792;BMP180;5953;52.372;9.918;2023-02-26T01:30:33;100810.00;;;5.90
11792;BMP180;5953;52.372;9.918;2023-02-26T01:33:30;100824.00;;;5.90
11792;BMP180;5953;52.372;9.918;2023-02-26T01:36:49;100824.00;;;5.80
11792;BMP180;5953;52.372;9.918;2023-02-26T01:39:54;100822.00;;;5.80
11792;BMP180;5953;52.372;9.918;2023-02-26T01:43:27;100834.00;;;5.80
11792;BMP180;5953;52.372;9.918;2023-02-26T01:47:10;100834.00;;;5.70
11792;BMP180;5953;52.372;9.918;2023-02-26T01:50:40;100837.00;;;5.70
11792;BMP180;5953;52.372;9.918;2023-02-26T01:53:55;100844.00;;;5.90
11792;BMP180;5953;52.372;9.918;2023-02-26T01:57:30;100858.00;;;5.90
11792;BMP180;5953;52.372;9.918;2023-02-26T02:04:26;100869.00;;;5.90
11792;BMP180;5953;52.372;9.918;2023-02-26T02:07:35;100868.00;;;6.00
11792;BMP180;5953;52.372;9.918;2023-02-26T02:10:28;100884.00;;;5.90
11792;BMP180;5953;52.372;9.918;2023-02-26T02:17:00;100892.00;;;6.00
11792;BMP180;5953;52.372;9.918;2023-02-26T02:27:45;100905.00;;;5.90
11792;BMP180;5953;52.372;9.918;2023-02-26T02:31:09;100888.00;;;5.80
11792;BMP180;5953;52.372;9.918;2023-02-26T02:34:25;100897.00;;;5.70
11792;BMP180;5953;52.372;9.918;2023-02-26T02:37:28;100903.00;;;5.70
11792;BMP180;5953;52.372;9.918;2023-02-26T02:40:38;100905.00;;;5.70
11792;BMP180;5953;52.372;9.918;2023-02-26T02:44:26;100920.00;;;5.80
11792;BMP180;5953;52.372;9.918;2023-02-26T02:51:34;100920.00;;;5.90
11792;BMP180;5953;52.372;9.918;2023-02-26T02:55:09;100915.00;;;5.90
11792;BMP180;5953;52.372;9.918;2023-02-26T02:58:52;100931.00;;;5.80
11792;BMP180;5953;52.372;9.918;2023-02-26T03:02:25;100932.00;;;5.80
11792;BMP180;5953;52.372;9.918;2023-02-26T03:06:00;100935.00;;;5.70
11792;BMP180;5953;52.372;9.918;2023-02-26T03:09:13;100937.00;;;5.80
11792;BMP180;5953;52.372;9.918;2023-02-26T03:12:49;100929.00;;;5.80
11792;BMP180;5953;52.372;9.918;2023-02-26T03:19:48;100941.00;;;5.60
11792;BMP180;5953;52.372;9.918;2023-02-26T03:30:08;100956.00;;;5.70
11792;BMP180;5953;52.372;9.918;2023-02-26T03:33:34;100960.00;;;5.80
11792;BMP180;5953;52.372;9.918;2023-02-26T03:36:54;100967.00;;;5.60
11792;BMP180;5953;52.372;9.918;2023-02-26T03:39:55;100966.00;;;5.70
11792;BMP180;5953;52.372;9.918;2023-02-26T03:42:54;100981.00;;;5.80
11792;BMP180;5953;52.372;9.918;2023-02-26T03:46:34;100975.00;;;5.80
11792;BMP180;5953;52.372;9.918;2023-02-26T03:49:47;100979.00;;;5.80
11792;BMP180;5953;52.372;9.918;2023-02-26T03:53:16;100985.00;;;5.90
11792;BMP180;5953;52.372;9.918;2023-02-26T03:56:32;100996.00;;;5.60
11792;BMP180;5953;52.372;9.918;2023-02-26T03:59:30;100996.00;;;5.80
11792;BMP180;5953;52.372;9.918;2023-02-26T04:02:42;101000.00;;;5.70
11792;BMP180;5953;52.372;9.918;2023-02-26T04:05:47;101004.00;;;5.70
11792;BMP180;5953;52.372;9.918;2023-02-26T04:08:24;101010.00;;;5.80
11792;BMP180;5953;52.372;9.918;2023-02-26T04:15:01;101018.00;;;6.00
11792;BMP180;5953;52.372;9.918;2023-02-26T04:18:38;101023.00;;;5.80
11792;BMP180;5953;52.372;9.918;2023-02-26T04:21:40;101041.00;;;5.80
11792;BMP180;5953;52.372;9.918;2023-02-26T04:24:48;101023.00;;;5.70
11792;BMP180;5953;52.372;9.918;2023-02-26T04:28:07;101035.00;;;5.70
11792;BMP180;5953;52.372;9.918;2023-02-26T04:30:59;101045.00;;;5.60
11792;BMP180;5953;52.372;9.918;2023-02-26T04:37:54;101054.00;;;5.70
11792;BMP180;5953;52.372;9.918;2023-02-26T04:40:52;101052.00;;;5.70
11792;BMP180;5953;52.372;9.918;2023-02-26T04:43:46;101060.00;;;5.90
11792;BMP180;5953;52.372;9.918;2023-02-26T04:46:57;101062.00;;;5.80
11792;BMP180;5953;52.372;9.918;2023-02-26T04:53:30;101071.00;;;6.00
11792;BMP180;5953;52.372;9.918;2023-02-26T04:56:26;101069.00;;;6.00
11792;BMP180;5953;52.372;9.918;2023-02-26T04:59:41;101073.00;;;6.10
11792;BMP180;5953;52.372;9.918;2023-02-26T05:02:53;101082.00;;;6.00
11792;BMP180;5953;52.372;9.918;2023-02-26T05:06:19;101078.00;;;6.00
11792;BMP180;5953;52.372;9.918;2023-02-26T05:09:33;101085.00;;;6.00
11792;BMP180;5953;52.372;9.918;2023-02-26T05:12:38;101090.00;;;6.00
11792;BMP180;5953;52.372;9.918;2023-02-26T05:15:40;101084.00;;;6.00
11792;BMP180;5953;52.372;9.918;2023-02-26T05:19:11;101107.00;;;6.00
11792;BMP180;5953;52.372;9.918;2023-02-26T05:22:40;101107.00;;;5.90
11792;BMP180;5953;52.372;9.918;2023-02-26T05:36:40;101140.00;;;5.90
11792;BMP180;5953;52.372;9.918;2023-02-26T05:39:28;101139.00;;;5.90
11792;BMP180;5953;52.372;9.918;2023-02-26T05:42:41;101136.00;;;5.70
11792;BMP180;5953;52.372;9.918;2023-02-26T05:45:57;101144.00;;;5.70
11792;BMP180;5953;52.372;9.918;2023-02-26T05:48:49;101147.00;;;5.50
11792;BMP180;5953;52.372;9.918;2023-02-26T05:52:33;101161.00;;;5.30
11792;BMP180;5953;52.372;9.918;2023-02-26T05:55:44;101165.00;;;5.20
11792;BMP180;5953;52.372;9.918;2023-02-26T05:59:11;101165.00;;;5.30
11792;BMP180;5953;52.372;9.918;2023-02-26T06:05:23;101179.00;;;5.20
11792;BMP180;5953;52.372;9.918;2023-02-26T06:08:26;101177.00;;;5.20
11792;BMP180;5953;52.372;9.918;2023-02-26T06:11:39;101179.00;;;5.10
11792;BMP180;5953;52.372;9.918;2023-02-26T06:15:13;101190.00;;;5.10
11792;BMP180;5953;52.372;9.918;2023-02-26T06:22:04;101201.00;;;5.00
11792;BMP180;5953;52.372;9.918;2023-02-26T06:25:41;101214.00;;;4.90
11792;BMP180;5953;52.372;9.918;2023-02-26T06:28:54;101214.00;;;4.90
11792;BMP180;5953;52.372;9.918;2023-02-26T06:31:55;101217.00;;;4.90
11792;BMP180;5953;52.372;9.918;2023-02-26T06:34:57;101221.00;;;4.80
11792;BMP180;5953;52.372;9.918;2023-02-26T06:37:49;101221.00;;;4.90
11792;BMP180;5953;52.372;9.918;2023-02-26T06:41:31;101232.00;;;4.70
11792;BMP180;5953;52.372;9.918;2023-02-26T06:44:17;101225.00;;;4.90
11792;BMP180;5953;52.372;9.918;2023-02-26T06:47:24;101239.00;;;4.80
11792;BMP180;5953;52.372;9.918;2023-02-26T06:52:46;101243.00;;;4.60
11792;BMP180;5953;52.372;9.918;2023-02-26T06:56:04;101208.00;;;4.60
11792;BMP180;5953;52.372;9.918;2023-02-26T06:59:54;101256.00;;;4.80
11792;BMP180;5953;52.372;9.918;2023-02-26T07:06:12;101229.00;;;5.00
11792;BMP180;5953;52.372;9.918;2023-02-26T07:13:54;101292.00;;;5.00
11792;BMP180;5953;52.372;9.918;2023-02-26T07:20:33;101277.00;;;5.00
11792;BMP180;5953;52.372;9.918;2023-02-26T07:23:10;101309.00;;;5.10
11792;BMP180;5953;52.372;9.918;2023-02-26T07:25:43;101290.00;;;5.20
11792;BMP180;5953;52.372;9.918;2023-02-26T07:28:28;101250.00;;;5.10
11792;BMP180;5953;52.372;9.918;2023-02-26T07:31:04;101331.00;;;5.00
11792;BMP180;5953;52.372;9.918;2023-02-26T07:33:44;101318.00;;;5.00
11792;BMP180;5953;52.372;9.918;2023-02-26T07:36:23;101316.00;;;5.00
11792;BMP180;5953;52.372;9.918;2023-02-26T07:38:55;101328.00;;;5.10
11792;BMP180;5953;52.372;9.918;2023-02-26T07:41:33;101317.00;;;5.30
11792;BMP180;5953;52.372;9.918;2023-02-26T07:44:19;101334.00;;;5.20
11792;BMP180;5953;52.372;9.918;2023-02-26T07:46:52;101312.00;;;5.30
11792;BMP180;5953;52.372;9.918;2023-02-26T07:49:35;101326.00;;;5.50
11792;BMP180;5953;52.372;9.918;2023-02-26T07:52:25;101327.00;;;5.50
11792;BMP180;5953;52.372;9.918;2023-02-26T07:55:02;101334.00;;;5.60
11792;BMP180;5953;52.372;9.918;2023-02-26T07:57:42;101333.00;;;5.60
11792;BMP180;5953;52.372;9.918;2023-02-26T08:00:14;101346.00;;;5.80
11792;BMP180;5953;52.372;9.918;2023-02-26T08:03:02;101365.00;;;5.60
11792;BMP180;5953;52.372;9.918;2023-02-26T08:22:33;101339.00;;;6.20
11792;BMP180;5953;52.372;9.918;2023-02-26T08:26:27;101395.00;;;6.30
11792;BMP180;5953;52.372;9.918;2023-02-26T08:30:35;101360.00;;;6.40
11792;BMP180;5953;52.372;9.918;2023-02-26T08:33:55;101404.00;;;6.60
11792;BMP180;5953;52.372;9.918;2023-02-26T09:32:03;101440.00;;;8.80
11792;BMP180;5953;52.372;9.918;2023-02-26T09:45:48;101434.00;;;9.40
11792;BMP180;5953;52.372;9.918;2023-02-26T10:00:33;101487.00;;;9.30
11792;BMP180;5953;52.372;9.918;2023-02-26T10:57:10;101534.00;;;10.60
11792;BMP180;5953;52.372;9.918;2023-02-26T11:04:30;101543.00;;;10.50
11792;BMP180;5953;52.372;9.918;2023-02-26T11:22:33;101546.00;;;10.40
11792;BMP180;5953;52.372;9.918;2023-02-26T11:25:03;101563.00;;;10.70
11792;BMP180;5953;52.372;9.918;2023-02-26T11:27:34;101550.00;;;10.80
11792;BMP180;5953;52.372;9.918;2023-02-26T11:30:06;101559.00;;;10.70
11792;BMP180;5953;52.372;9.918;2023-02-26T11:32:35;101556.00;;;10.70
11792;BMP180;5953;52.372;9.918;2023-02-26T11:35:07;101557.00;;;10.90
11792;BMP180;5953;52.372;9.918;2023-02-26T11:37:38;101556.00;;;11.00
11792;BMP180;5953;52.372;9.918;2023-02-26T11:40:14;101560.00;;;11.10
11792;BMP180;5953;52.372;9.918;2023-02-26T11:42:47;101552.00;;;11.20
11792;BMP180;5953;52.372;9.918;2023-02-26T11:45:18;101555.00;;;11.10
11792;BMP180;5953;52.372;9.918;2023-02-26T11:47:48;101562.00;;;11.20
11792;BMP180;5953;52.372;9.918;2023-02-26T11:50:19;101569.00;;;11.30
11792;BMP180;5953;52.372;9.918;2023-02-26T11:52:56;101562.00;;;11.00
11792;BMP180;5953;52.372;9.918;2023-02-26T11:55:32;101560.00;;;11.30
11792;BMP180;5953;52.372;9.918;2023-02-26T11:58:00;101566.00;;;11.30
11792;BMP180;5953;52.372;9.918;2023-02-26T12:00:30;101568.00;;;11.20
11792;BMP180;5953;52.372;9.918;2023-02-26T12:02:59;101567.00;;;11.30
11792;BMP180;5953;52.372;9.918;2023-02-26T12:05:29;101565.00;;;11.20
11792;BMP180;5953;52.372;9.918;2023-02-26T12:07:59;101558.00;;;11.00
11792;BMP180;5953;52.372;9.918;2023-02-26T12:10:35;101561.00;;;10.80
11792;BMP180;5953;52.372;9.918;2023-02-26T12:13:10;101560.00;;;10.70
11792;BMP180;5953;52.372;9.918;2023-02-26T12:15:50;101563.00;;;10.90
11792;BMP180;5953;52.372;9.918;2023-02-26T12:18:32;101558.00;;;11.10
11792;BMP180;5953;52.372;9.918;2023-02-26T12:21:14;101560.00;;;11.10
11792;BMP180;5953;52.372;9.918;2023-02-26T12:24:17;101552.00;;;11.10
11792;BMP180;5953;52.372;9.918;2023-02-26T12:26:58;101557.00;;;10.90
11792;BMP180;5953;52.372;9.918;2023-02-26T12:29:36;101551.00;;;11.00
11792;BMP180;5953;52.372;9.918;2023-02-26T12:32:22;101562.00;;;11.00
11792;BMP180;5953;52.372;9.918;2023-02-26T12:35:05;101560.00;;;11.10
11792;BMP180;5953;52.372;9.918;2023-02-26T12:37:50;101563.00;;;11.10
11792;BMP180;5953;52.372;9.918;2023-02-26T12:40:43;101563.00;;;11.40
11792;BMP180;5953;52.372;9.918;2023-02-26T12:43:22;101557.00;;;11.30
11792;BMP180;5953;52.372;9.918;2023-02-26T12:45:55;101568.00;;;11.20
11792;BMP180;5953;52.372;9.918;2023-02-26T12:48:48;101577.00;;;11.20
11792;BMP180;5953;52.372;9.918;2023-02-26T12:51:32;101580.00;;;11.40
11792;BMP180;5953;52.372;9.918;2023-02-26T12:54:20;101569.00;;;11.30
11792;BMP180;5953;52.372;9.918;2023-02-26T12:57:07;101567.00;;;11.40
11792;BMP180;5953;52.372;9.918;2023-02-26T12:59:52;101570.00;;;11.10
11792;BMP180;5953;52.372;9.918;2023-02-26T13:02:55;101557.00;;;11.10
11792;BMP180;5953;52.372;9.918;2023-02-26T13:05:38;101567.00;;;11.30
11792;BMP180;5953;52.372;9.918;2023-02-26T13:08:16;101559.00;;;11.40
11792;BMP180;5953;52.372;9.918;2023-02-26T13:11:03;101563.00;;;11.50
11792;BMP180;5953;52.372;9.918;2023-02-26T13:13:49;101553.00;;;11.50
11792;BMP180;5953;52.372;9.918;2023-02-26T13:16:30;101555.00;;;11.70
11792;BMP180;5953;52.372;9.918;2023-02-26T13:19:04;101555.00;;;11.70
11792;BMP180;5953;52.372;9.918;2023-02-26T13:21:38;101561.00;;;11.80
11792;BMP180;5953;52.372;9.918;2023-02-26T13:24:11;101565.00;;;11.60
11792;BMP180;5953;52.372;9.918;2023-02-26T13:26:41;101552.00;;;11.70
11792;BMP180;5953;52.372;9.918;2023-02-26T13:29:13;101558.00;;;11.70
11792;BMP180;5953;52.372;9.918;2023-02-26T13:31:44;101561.00;;;11.50
11792;BMP180;5953;52.372;9.918;2023-02-26T13:34:18;101566.00;;;11.50
11792;BMP180;5953;52.372;9.918;2023-02-26T13:36:48;101550.00;;;11.60
11792;BMP180;5953;52.372;9.918;2023-02-26T13:39:41;101561.00;;;11.70
11792;BMP180;5953;52.372;9.918;2023-02-26T13:42:22;101555.00;;;11.50
11792;BMP180;5953;52.372;9.918;2023-02-26T13:45:05;101558.00;;;11.50
11792;BMP180;5953;52.372;9.918;2023-02-26T13:47:51;101556.00;;;11.60
11792;BMP180;5953;52.372;9.918;2023-02-26T13:50:29;101551.00;;;11.70
11792;BMP180;5953;52.372;9.918;2023-02-26T13:53:20;101555.00;;;11.80
11792;BMP180;5953;52.372;9.918;2023-02-26T13:55:56;101552.00;;;11.60
11792;BMP180;5953;52.372;9.918;2023-02-26T13:58:39;101558.00;;;11.60
11792;BMP180;5953;52.372;9.918;2023-02-26T14:01:12;101541.00;;;11.60
11792;BMP180;5953;52.372;9.918;2023-02-26T14:03:46;101553.00;;;11.50
11792;BMP180;5953;52.372;9.918;2023-02-26T14:09:33;101557.00;;;11.50
11792;BMP180;5953;52.372;9.918;2023-02-26T14:12:03;101558.00;;;11.60
11792;BMP180;5953;52.372;9.918;2023-02-26T14:14:41;101564.00;;;11.70
11792;BMP180;5953;52.372;9.918;2023-02-26T14:17:34;101552.00;;;11.70
11792;BMP180;5953;52.372;9.918;2023-02-26T14:20:15;101546.00;;;11.90
11792;BMP180;5953;52.372;9.918;2023-02-26T14:22:47;101543.00;;;11.90
11792;BMP180;5953;52.372;9.918;2023-02-26T14:25:20;101557.00;;;11.90
11792;BMP180;5953;52.372;9.918;2023-02-26T14:31:06;101551.00;;;11.80
11792;BMP180;5953;52.372;9.918;2023-02-26T14:33:41;101551.00;;;11.70
11792;BMP180;5953;52.372;9.918;2023-02-26T14:36:16;101554.00;;;11.70
11792;BMP180;5953;52.372;9.918;2023-02-26T14:38:46;101564.00;;;11.30
11792;BMP180;5953;52.372;9.918;2023-02-26T14:41:23;101558.00;;;11.60
11792;BMP180;5953;52.372;9.918;2023-02-26T14:43:59;101557.00;;;11.80
11792;BMP180;5953;52.372;9.918;2023-02-26T14:46:27;101555.00;;;11.80
11792;BMP180;5953;52.372;9.918;2023-02-26T14:48:57;101552.00;;;11.80
11792;BMP180;5953;52.372;9.918;2023-02-26T14:51:32;101561.00;;;11.70
11792;BMP180;5953;52.372;9.918;2023-02-26T14:54:18;101563.00;;;11.60
11792;BMP180;5953;52.372;9.918;2023-02-26T14:56:56;101556.00;;;11.50
11792;BMP180;5953;52.372;9.918;2023-02-26T14:59:48;101554.00;;;11.50
11792;BMP180;5953;52.372;9.918;2023-02-26T15:02:25;101558.00;;;11.50
11792;BMP180;5953;52.372;9.918;2023-02-26T15:05:21;101567.00;;;11.50
11792;BMP180;5953;52.372;9.918;2023-02-26T15:08:14;101569.00;;;11.50
11792;BMP180;5953;52.372;9.918;2023-02-26T15:10:57;101574.00;;;11.40
11792;BMP180;5953;52.372;9.918;2023-02-26T15:13:45;101584.00;;;11.30
11792;BMP180;5953;52.372;9.918;2023-02-26T15:16:23;101564.00;;;11.30
11792;BMP180;5953;52.372;9.918;2023-02-26T15:19:05;101571.00;;;11.20
11792;BMP180;5953;52.372;9.918;2023-02-26T15:21:47;101562.00;;;11.10
11792;BMP180;5953;52.372;9.918;2023-02-26T15:24:18;101581.00;;;11.00
11792;BMP180;5953;52.372;9.918;2023-02-26T15:26:49;101584.00;;;10.90
11792;BMP180;5953;52.372;9.918;2023-02-26T15:29:21;101583.00;;;10.80
11792;BMP180;5953;52.372;9.918;2023-02-26T15:31:53;101581.00;;;10.80
11792;BMP180;5953;52.372;9.918;2023-02-26T15:34:22;101582.00;;;10.70
11792;BMP180;5953;52.372;9.918;2023-02-26T15:36:52;101587.00;;;10.60
11792;BMP180;5953;52.372;9.918;2023-02-26T15:39:22;101594.00;;;10.80
11792;BMP180;5953;52.372;9.918;2023-02-26T15:41:52;101588.00;;;10.70
11792;BMP180;5953;52.372;9.918;2023-02-26T15:44:23;101591.00;;;10.60
11792;BMP180;5953;52.372;9.918;2023-02-26T15:46:55;101581.00;;;10.50
11792;BMP180;5953;52.372;9.918;2023-02-26T15:49:25;101586.00;;;10.50
11792;BMP180;5953;52.372;9.918;2023-02-26T15:51:56;101587.00;;;10.60
11792;BMP180;5953;52.372;9.918;2023-02-26T15:54:32;101599.00;;;10.70
11792;BMP180;5953;52.372;9.918;2023-02-26T15:57:01;101603.00;;;10.40
11792;BMP180;5953;52.372;9.918;2023-02-26T15:59:31;101601.00;;;10.60
11792;BMP180;5953;52.372;9.918;2023-02-26T16:02:02;101607.00;;;10.70
11792;BMP180;5953;52.372;9.918;2023-02-26T16:04:30;101624.00;;;10.80
11792;BMP180;5953;52.372;9.918;2023-02-26T16:06:59;101617.00;;;10.60
11792;BMP180;5953;52.372;9.918;2023-02-26T16:09:29;101618.00;;;10.40
11792;BMP180;5953;52.372;9.918;2023-02-26T16:11:59;101609.00;;;10.30
11792;BMP180;5953;52.372;9.918;2023-02-26T16:14:30;101619.00;;;10.40
11792;BMP180;5953;52.372;9.918;2023-02-26T16:16:59;101616.00;;;10.40
11792;BMP180;5953;52.372;9.918;2023-02-26T16:19:32;101614.00;;;10.40
11792;BMP180;5953;52.372;9.918;2023-02-26T16:22:05;101621.00;;;10.40
11792;BMP180;5953;52.372;9.918;2023-02-26T16:24:33;101634.00;;;10.20
11792;BMP180;5953;52.372;9.918;2023-02-26T16:27:04;101631.00;;;10.10
11792;BMP180;5953;52.372;9.918;2023-02-26T16:29:34;101634.00;;;10.10
11792;BMP180;5953;52.372;9.918;2023-02-26T16:32:08;101639.00;;;10.00
11792;BMP180;5953;52.372;9.918;2023-02-26T16:34:41;101645.00;;;10.10
11792;BMP180;5953;52.372;9.918;2023-02-26T16:37:25;101636.00;;;10.10
11792;BMP180;5953;52.372;9.918;2023-02-26T16:39:55;101637.00;;;10.20
11792;BMP180;5953;52.372;9.918;2023-02-26T16:42:43;101650.00;;;10.20
11792;BMP180;5953;52.372;9.918;2023-02-26T16:45:18;101643.00;;;10.10
11792;BMP180;5953;52.372;9.918;2023-02-26T16:47:50;101653.00;;;10.20
11792;BMP180;5953;52.372;9.918;2023-02-26T16:50:22;101660.00;;;10.20
11792;BMP180;5953;52.372;9.918;2023-02-26T16:52:58;101661.00;;;10.10
11792;BMP180;5953;52.372;9.918;2023-02-26T16:55:26;101659.00;;;10.00
11792;BMP180;5953;52.372;9.918;2023-02-26T16:57:56;101682.00;;;9.90
11792;BMP180;5953;52.372;9.918;2023-02-26T17:00:28;101680.00;;;10.00
11792;BMP180;5953;52.372;9.918;2023-02-26T17:03:01;101682.00;;;9.90
11792;BMP180;5953;52.372;9.918;2023-02-26T17:05:33;101674.00;;;9.90
11792;BMP180;5953;52.372;9.918;2023-02-26T17:08:08;101683.00;;;9.80
11792;BMP180;5953;52.372;9.918;2023-02-26T17:10:39;101684.00;;;9.70
11792;BMP180;5953;52.372;9.918;2023-02-26T17:13:13;101693.00;;;9.60
11792;BMP180;5953;52.372;9.918;2023-02-26T17:15:43;101696.00;;;9.60
11792;BMP180;5953;52.372;9.918;2023-02-26T17:18:12;101696.00;;;9.50
11792;BMP180;5953;52.372;9.918;2023-02-26T17:20:40;101691.00;;;9.70
11792;BMP180;5953;52.372;9.918;2023-02-26T17:23:13;101693.00;;;9.50
11792;BMP180;5953;52.372;9.918;2023-02-26T17:25:44;101707.00;;;9.40
11792;BMP180;5953;52.372;9.918;2023-02-26T17:28:16;101702.00;;;9.40
11792;BMP180;5953;52.372;9.918;2023-02-26T17:30:47;101707.00;;;9.40
11792;BMP180;5953;52.372;9.918;2023-02-26T17:33:15;101709.00;;;9.50
11792;BMP180;5953;52.372;9.918;2023-02-26T17:35:43;101706.00;;;9.60
11792;BMP180;5953;52.372;9.918;2023-02-26T17:38:13;101712.00;;;9.50
11792;BMP180;5953;52.372;9.918;2023-02-26T17:40:43;101722.00;;;9.50
11792;BMP180;5953;52.372;9.918;2023-02-26T17:43:13;101718.00;;;9.60
11792;BMP180;5953;52.372;9.918;2023-02-26T17:45:40;101716.00;;;9.50
11792;BMP180;5953;52.372;9.918;2023-02-26T17:48:10;101723.00;;;9.60
11792;BMP180;5953;52.372;9.918;2023-02-26T17:50:42;101720.00;;;9.40
11792;BMP180;5953;52.372;9.918;2023-02-26T17:53:14;101725.00;;;9.40
11792;BMP180;5953;52.372;9.918;2023-02-26T17:55:43;101733.00;;;9.50
11792;BMP180;5953;52.372;9.918;2023-02-26T17:58:14;101738.00;;;9.30
11792;BMP180;5953;52.372;9.918;2023-02-26T18:00:42;101741.00;;;9.40
11792;BMP180;5953;52.372;9.918;2023-02-26T18:03:11;101746.00;;;9.40
11792;BMP180;5953;52.372;9.918;2023-02-26T18:05:39;101740.00;;;9.30
11792;BMP180;5953;52.372;9.918;2023-02-26T18:08:16;101759.00;;;9.40
11792;BMP180;5953;52.372;9.918;2023-02-26T18:10:45;101748.00;;;9.40
11792;BMP180;5953;52.372;9.918;2023-02-26T18:13:13;101741.00;;;9.40
11792;BMP180;5953;52.372;9.918;2023-02-26T18:15:41;101754.00;;;9.30
11792;BMP180;5953;52.372;9.918;2023-02-26T18:18:10;101757.00;;;9.40
11792;BMP180;5953;52.372;9.918;2023-02-26T18:20:38;101748.00;;;9.40
11792;BMP180;5953;52.372;9.918;2023-02-26T18:23:06;101759.00;;;9.30
11792;BMP180;5953;52.372;9.918;2023-02-26T18:25:35;101748.00;;;9.30
11792;BMP180;5953;52.372;9.918;2023-02-26T18:28:06;101761.00;;;9.20
11792;BMP180;5953;52.372;9.918;2023-02-26T18:30:37;101750.00;;;9.20
11792;BMP180;5953;52.372;9.918;2023-02-26T18:33:07;101757.00;;;9.20
11792;BMP180;5953;52.372;9.918;2023-02-26T18:35:34;101755.00;;;9.00
11792;BMP180;5953;52.372;9.918;2023-02-26T18:38:03;101756.00;;;9.00
11792;BMP180;5953;52.372;9.918;2023-02-26T18:40:31;101758.00;;;8.90
11792;BMP180;5953;52.372;9.918;2023-02-26T18:43:00;101748.00;;;9.00
11792;BMP180;5953;52.372;9.918;2023-02-26T18:45:28;101762.00;;;8.90
11792;BMP180;5953;52.372;9.918;2023-02-26T18:47:55;101749.00;;;8.70
11792;BMP180;5953;52.372;9.918;2023-02-26T18:50:23;101750.00;;;8.80
11792;BMP180;5953;52.372;9.918;2023-02-26T18:52:51;101761.00;;;8.70
11792;BMP180;5953;52.372;9.918;2023-02-26T18:55:19;101751.00;;;8.70
11792;BMP180;5953;52.372;9.918;2023-02-26T18:57:46;101760.00;;;8.60
11792;BMP180;5953;52.372;9.918;2023-02-26T19:00:16;101765.00;;;8.60
11792;BMP180;5953;52.372;9.918;2023-02-26T19:02:45;101768.00;;;8.70
11792;BMP180;5953;52.372;9.918;2023-02-26T19:05:14;101771.00;;;8.60
11792;BMP180;5953;52.372;9.918;2023-02-26T19:07:41;101780.00;;;8.60
11792;BMP180;5953;52.372;9.918;2023-02-26T19:10:11;101781.00;;;8.60
11792;BMP180;5953;52.372;9.918;2023-02-26T19:12:40;101787.00;;;8.60
11792;BMP180;5953;52.372;9.918;2023-02-26T19:15:09;101780.00;;;8.60
11792;BMP180;5953;52.372;9.918;2023-02-26T19:17:40;101796.00;;;8.50
11792;BMP180;5953;52.372;9.918;2023-02-26T19:20:09;101793.00;;;8.50
11792;BMP180;5953;52.372;9.918;2023-02-26T19:22:37;101797.00;;;8.60
11792;BMP180;5953;52.372;9.918;2023-02-26T19:25:06;101807.00;;;8.50
11792;BMP180;5953;52.372;9.918;2023-02-26T19:27:34;101802.00;;;8.50
11792;BMP180;5953;52.372;9.918;2023-02-26T19:30:03;101794.00;;;8.60
11792;BMP180;5953;52.372;9.918;2023-02-26T19:32:31;101800.00;;;8.60
11792;BMP180;5953;52.372;9.918;2023-02-26T19:35:01;101794.00;;;8.50
11792;BMP180;5953;52.372;9.918;2023-02-26T19:37:29;101795.00;;;8.40
11792;BMP180;5953;52.372;9.918;2023-02-26T19:39:58;101802.00;;;8.40
11792;BMP180;5953;52.372;9.918;2023-02-26T19:42:36;101815.00;;;8.30
11792;BMP180;5953;52.372;9.918;2023-02-26T19:48:06;101818.00;;;8.20
11792;BMP180;5953;52.372;9.918;2023-02-26T19:50:37;101765.00;;;8.30
11792;BMP180;5953;52.372;9.918;2023-02-26T19:53:10;101804.00;;;8.20
11792;BMP180;5953;52.372;9.918;2023-02-26T19:55:45;101823.00;;;8.20
11792;BMP180;5953;52.372;9.918;2023-02-26T19:58:14;101823.00;;;8.20
11792;BMP180;5953;52.372;9.918;2023-02-26T20:00:44;101801.00;;;8.10
11792;BMP180;5953;52.372;9.918;2023-02-26T20:03:12;101805.00;;;8.20
11792;BMP180;5953;52.372;9.918;2023-02-26T20:05:47;101837.00;;;8.10
11792;BMP180;5953;52.372;9.918;2023-02-26T20:08:15;101805.00;;;8.20
11792;BMP180;5953;52.372;9.918;2023-02-26T20:10:48;101850.00;;;8.00
11792;BMP180;5953;52.372;9.918;2023-02-26T20:13:22;101823.00;;;8.00
11792;BMP180;5953;52.372;9.918;2023-02-26T20:16:03;101798.00;;;7.80
11792;BMP180;5953;52.372;9.918;2023-02-26T20:23:13;101797.00;;;7.50
11792;BMP180;5953;52.372;9.918;2023-02-26T20:25:45;101844.00;;;7.60
11792;BMP180;5953;52.372;9.918;2023-02-26T20:39:52;101883.00;;;7.40
11792;BMP180;5953;52.372;9.918;2023-02-26T20:42:25;101894.00;;;7.30
11792;BMP180;5953;52.372;9.918;2023-02-26T20:44:59;101827.00;;;7.50
11792;BMP180;5953;52.372;9.918;2023-02-26T20:47:27;101869.00;;;7.30
11792;BMP180;5953;52.372;9.918;2023-02-26T20:49:56;101846.00;;;7.40
11792;BMP180;5953;52.372;9.918;2023-02-26T20:52:49;101862.00;;;7.50
11792;BMP180;5953;52.372;9.918;2023-02-26T20:55:26;101815.00;;;7.30
11792;BMP180;5953;52.372;9.918;2023-02-26T20:57:58;101881.00;;;7.30
11792;BMP180;5953;52.372;9.918;2023-02-26T21:00:30;101852.00;;;7.30